sensor_id;sensor_type;location;lat;lon;timestamp;temperature;humidity
70234;DHT22;75981;42.636;23.376;2024-03-23T00:56:12;7.14;52.76
70234;DHT22;75981;42.636;23.376;2024-03-23T00:58:37;7.25;52.70
70234;DHT22;75981;42.636;23.376;2024-03-23T01:01:03;7.04;52.80
70234;DHT22;75981;42.636;23.376;2024-03-23T01:03:29;7.05;53.22
70234;DHT22;75981;42.636;23.376;2024-03-23T01:05:59;6.63;52.69
70234;DHT22;75981;42.636;23.376;2024-03-23T01:08:24;6.93;52.47
70234;DHT22;75981;42.636;23.376;2024-03-23T01:10:56;7.10;51.62
70234;DHT22;75981;42.636;23.376;2024-03-23T01:13:22;7.65;50.30
70234;DHT22;75981;42.636;23.376;2024-03-23T01:15:49;7.20;50.04
70234;DHT22;75981;42.636;23.376;2024-03-23T01:18:17;7.07;50.76
70234;DHT22;75981;42.636;23.376;2024-03-23T01:20:43;6.73;51.42
70234;DHT22;75981;42.636;23.376;2024-03-23T01:23:08;6.89;50.75
70234;DHT22;75981;42.636;23.376;2024-03-23T01:25:33;6.45;51.21
70234;DHT22;75981;42.636;23.376;2024-03-23T01:27:59;6.46;51.50
70234;DHT22;75981;42.636;23.376;2024-03-23T01:30:24;6.77;51.13
70234;DHT22;75981;42.636;23.376;2024-03-23T01:32:50;6.72;51.18
70234;DHT22;75981;42.636;23.376;2024-03-23T01:35:15;6.86;51.22
70234;DHT22;75981;42.636;23.376;2024-03-23T01:37:40;7.21;50.13
70234;DHT22;75981;42.636;23.376;2024-03-23T01:40:06;7.36;50.07
70234;DHT22;75981;42.636;23.376;2024-03-23T01:42:32;7.24;50.03
70234;DHT22;75981;42.636;23.376;2024-03-23T01:44:57;6.83;51.32
70234;DHT22;75981;42.636;23.376;2024-03-23T01:47:22;6.41;52.25
70234;DHT22;75981;42.636;23.376;2024-03-23T01:49:48;6.26;52.91
70234;DHT22;75981;42.636;23.376;2024-03-23T01:52:14;6.36;52.85
70234;DHT22;75981;42.636;23.376;2024-03-23T01:54:40;6.57;52.53
70234;DHT22;75981;42.636;23.376;2024-03-23T01:57:06;6.68;52.33
70234;DHT22;75981;42.636;23.376;2024-03-23T01:59:32;6.71;52.29
70234;DHT22;75981;42.636;23.376;2024-03-23T02:01:57;6.52;52.56
70234;DHT22;75981;42.636;23.376;2024-03-23T02:04:23;6.15;52.54
70234;DHT22;75981;42.636;23.376;2024-03-23T02:06:48;6.28;53.39
70234;DHT22;75981;42.636;23.376;2024-03-23T02:09:14;6.10;53.07
70234;DHT22;75981;42.636;23.376;2024-03-23T02:11:40;6.34;52.84
70234;DHT22;75981;42.636;23.376;2024-03-23T02:14:06;6.05;53.33
70234;DHT22;75981;42.636;23.376;2024-03-23T02:16:33;6.22;53.46
70234;DHT22;75981;42.636;23.376;2024-03-23T02:18:58;6.17;53.63
70234;DHT22;75981;42.636;23.376;2024-03-23T02:21:23;5.93;54.27
70234;DHT22;75981;42.636;23.376;2024-03-23T02:23:49;5.50;56.18
70234;DHT22;75981;42.636;23.376;2024-03-23T02:26:14;5.70;55.55
70234;DHT22;75981;42.636;23.376;2024-03-23T02:28:40;5.96;55.06
70234;DHT22;75981;42.636;23.376;2024-03-23T02:31:06;6.07;54.52
70234;DHT22;75981;42.636;23.376;2024-03-23T02:33:31;6.38;54.19
70234;DHT22;75981;42.636;23.376;2024-03-23T02:35:58;6.04;54.62
70234;DHT22;75981;42.636;23.376;2024-03-23T02:38:23;6.38;54.04
70234;DHT22;75981;42.636;23.376;2024-03-23T02:40:49;6.10;53.84
70234;DHT22;75981;42.636;23.376;2024-03-23T02:43:15;5.38;54.92
70234;DHT22;75981;42.636;23.376;2024-03-23T02:45:40;5.73;53.68
70234;DHT22;75981;42.636;23.376;2024-03-23T02:48:06;6.44;51.81
70234;DHT22;75981;42.636;23.376;2024-03-23T02:50:31;6.87;50.82
70234;DHT22;75981;42.636;23.376;2024-03-23T02:52:56;6.82;50.64
70234;DHT22;75981;42.636;23.376;2024-03-23T02:55:22;6.66;50.95
70234;DHT22;75981;42.636;23.376;2024-03-23T02:57:48;6.50;51.40
70234;DHT22;75981;42.636;23.376;2024-03-23T03:00:13;6.77;51.30
70234;DHT22;75981;42.636;23.376;2024-03-23T03:02:38;6.62;51.49
70234;DHT22;75981;42.636;23.376;2024-03-23T03:05:05;6.52;51.81
70234;DHT22;75981;42.636;23.376;2024-03-23T03:07:31;6.61;51.04
70234;DHT22;75981;42.636;23.376;2024-03-23T03:09:57;6.29;51.04
70234;DHT22;75981;42.636;23.376;2024-03-23T03:12:22;6.63;50.34
70234;DHT22;75981;42.636;23.376;2024-03-23T03:14:48;6.36;49.72
70234;DHT22;75981;42.636;23.376;2024-03-23T03:17:13;6.52;49.83
70234;DHT22;75981;42.636;23.376;2024-03-23T03:19:40;7.04;49.07
70234;DHT22;75981;42.636;23.376;2024-03-23T03:22:05;6.84;48.89
70234;DHT22;75981;42.636;23.376;2024-03-23T03:24:31;6.20;49.44
70234;DHT22;75981;42.636;23.376;2024-03-23T03:26:56;6.21;50.03
70234;DHT22;75981;42.636;23.376;2024-03-23T03:29:23;6.65;49.47
70234;DHT22;75981;42.636;23.376;2024-03-23T03:31:49;6.61;49.79
70234;DHT22;75981;42.636;23.376;2024-03-23T03:34:15;7.05;48.85
70234;DHT22;75981;42.636;23.376;2024-03-23T03:36:41;7.21;48.33
70234;DHT22;75981;42.636;23.376;2024-03-23T03:39:06;7.30;48.41
70234;DHT22;75981;42.636;23.376;2024-03-23T03:41:32;7.34;48.15
70234;DHT22;75981;42.636;23.376;2024-03-23T03:43:57;7.48;48.08
70234;DHT22;75981;42.636;23.376;2024-03-23T03:46:27;7.51;48.33
70234;DHT22;75981;42.636;23.376;2024-03-23T03:48:54;6.92;48.89
70234;DHT22;75981;42.636;23.376;2024-03-23T03:51:19;6.26;50.35
70234;DHT22;75981;42.636;23.376;2024-03-23T03:53:45;6.71;49.45
70234;DHT22;75981;42.636;23.376;2024-03-23T03:56:10;6.39;49.24
70234;DHT22;75981;42.636;23.376;2024-03-23T03:58:36;6.36;49.84
70234;DHT22;75981;42.636;23.376;2024-03-23T04:01:01;6.15;50.39
70234;DHT22;75981;42.636;23.376;2024-03-23T04:03:26;6.14;50.43
70234;DHT22;75981;42.636;23.376;2024-03-23T04:05:53;6.32;50.39
70234;DHT22;75981;42.636;23.376;2024-03-23T04:08:19;6.31;51.01
70234;DHT22;75981;42.636;23.376;2024-03-23T04:10:45;6.08;51.32
70234;DHT22;75981;42.636;23.376;2024-03-23T04:13:11;5.96;51.90
70234;DHT22;75981;42.636;23.376;2024-03-23T04:15:37;6.11;51.80
70234;DHT22;75981;42.636;23.376;2024-03-23T04:18:02;6.01;51.81
70234;DHT22;75981;42.636;23.376;2024-03-23T04:20:28;5.94;52.09
70234;DHT22;75981;42.636;23.376;2024-03-23T04:22:53;6.01;51.97
70234;DHT22;75981;42.636;23.376;2024-03-23T04:25:19;5.89;52.06
70234;DHT22;75981;42.636;23.376;2024-03-23T04:27:45;5.84;51.75
70234;DHT22;75981;42.636;23.376;2024-03-23T04:30:11;5.45;52.93
70234;DHT22;75981;42.636;23.376;2024-03-23T04:32:37;5.81;51.96
70234;DHT22;75981;42.636;23.376;2024-03-23T04:35:03;5.55;52.93
70234;DHT22;75981;42.636;23.376;2024-03-23T04:37:37;5.28;54.39
70234;DHT22;75981;42.636;23.376;2024-03-23T04:40:04;5.45;53.92
70234;DHT22;75981;42.636;23.376;2024-03-23T04:42:30;5.57;53.72
70234;DHT22;75981;42.636;23.376;2024-03-23T04:44:56;5.40;54.14
70234;DHT22;75981;42.636;23.376;2024-03-23T04:47:21;5.18;54.86
70234;DHT22;75981;42.636;23.376;2024-03-23T04:49:48;5.07;55.82
70234;DHT22;75981;42.636;23.376;2024-03-23T04:52:13;5.40;54.71
70234;DHT22;75981;42.636;23.376;2024-03-23T04:54:39;5.91;53.27
70234;DHT22;75981;42.636;23.376;2024-03-23T04:57:07;5.69;53.74
70234;DHT22;75981;42.636;23.376;2024-03-23T04:59:33;5.24;55.14
70234;DHT22;75981;42.636;23.376;2024-03-23T05:01:59;5.74;53.97
70234;DHT22;75981;42.636;23.376;2024-03-23T05:04:25;5.76;53.58
70234;DHT22;75981;42.636;23.376;2024-03-23T05:06:50;5.97;53.52
70234;DHT22;75981;42.636;23.376;2024-03-23T05:09:16;5.73;54.06
70234;DHT22;75981;42.636;23.376;2024-03-23T05:11:42;5.42;54.80
70234;DHT22;75981;42.636;23.376;2024-03-23T05:14:07;5.62;54.28
70234;DHT22;75981;42.636;23.376;2024-03-23T05:16:33;5.57;54.64
70234;DHT22;75981;42.636;23.376;2024-03-23T05:18:58;5.46;55.70
70234;DHT22;75981;42.636;23.376;2024-03-23T05:21:24;5.52;55.35
70234;DHT22;75981;42.636;23.376;2024-03-23T05:23:49;5.45;55.96
70234;DHT22;75981;42.636;23.376;2024-03-23T05:26:16;5.87;54.65
70234;DHT22;75981;42.636;23.376;2024-03-23T05:28:42;6.01;54.70
70234;DHT22;75981;42.636;23.376;2024-03-23T05:31:07;5.70;55.80
70234;DHT22;75981;42.636;23.376;2024-03-23T05:33:34;5.73;55.66
70234;DHT22;75981;42.636;23.376;2024-03-23T05:36:03;5.87;55.58
70234;DHT22;75981;42.636;23.376;2024-03-23T05:38:29;5.84;55.01
70234;DHT22;75981;42.636;23.376;2024-03-23T05:40:55;5.83;55.43
70234;DHT22;75981;42.636;23.376;2024-03-23T05:43:21;5.86;55.69
70234;DHT22;75981;42.636;23.376;2024-03-23T05:45:57;5.67;55.82
70234;DHT22;75981;42.636;23.376;2024-03-23T05:48:23;5.67;55.90
70234;DHT22;75981;42.636;23.376;2024-03-23T05:50:49;5.77;55.35
70234;DHT22;75981;42.636;23.376;2024-03-23T05:53:19;5.91;55.09
70234;DHT22;75981;42.636;23.376;2024-03-23T05:55:47;6.22;55.20
70234;DHT22;75981;42.636;23.376;2024-03-23T05:58:15;6.20;55.58
70234;DHT22;75981;42.636;23.376;2024-03-23T06:00:40;6.29;55.37
70234;DHT22;75981;42.636;23.376;2024-03-23T06:03:07;5.96;56.43
70234;DHT22;75981;42.636;23.376;2024-03-23T06:05:32;5.91;56.08
70234;DHT22;75981;42.636;23.376;2024-03-23T06:07:57;6.08;56.25
70234;DHT22;75981;42.636;23.376;2024-03-23T06:10:23;6.71;54.41
70234;DHT22;75981;42.636;23.376;2024-03-23T06:12:48;7.01;53.50
70234;DHT22;75981;42.636;23.376;2024-03-23T06:15:16;7.32;52.43
70234;DHT22;75981;42.636;23.376;2024-03-23T06:17:41;7.52;52.16
70234;DHT22;75981;42.636;23.376;2024-03-23T06:20:07;7.35;52.31
70234;DHT22;75981;42.636;23.376;2024-03-23T06:22:32;7.32;52.16
70234;DHT22;75981;42.636;23.376;2024-03-23T06:24:59;7.41;51.90
70234;DHT22;75981;42.636;23.376;2024-03-23T06:27:24;7.04;53.14
70234;DHT22;75981;42.636;23.376;2024-03-23T06:29:50;7.42;52.50
70234;DHT22;75981;42.636;23.376;2024-03-23T06:32:15;7.65;51.63
70234;DHT22;75981;42.636;23.376;2024-03-23T06:34:44;8.12;51.58
70234;DHT22;75981;42.636;23.376;2024-03-23T06:37:10;7.44;52.96
70234;DHT22;75981;42.636;23.376;2024-03-23T06:39:38;8.37;51.43
70234;DHT22;75981;42.636;23.376;2024-03-23T06:42:04;8.44;51.01
70234;DHT22;75981;42.636;23.376;2024-03-23T06:44:30;9.18;49.27
70234;DHT22;75981;42.636;23.376;2024-03-23T06:46:56;8.88;50.71
70234;DHT22;75981;42.636;23.376;2024-03-23T06:49:25;8.78;50.34
70234;DHT22;75981;42.636;23.376;2024-03-23T06:51:50;8.93;50.77
70234;DHT22;75981;42.636;23.376;2024-03-23T06:54:19;9.29;50.00
70234;DHT22;75981;42.636;23.376;2024-03-23T06:56:45;8.69;50.90
70234;DHT22;75981;42.636;23.376;2024-03-23T06:59:10;8.85;50.69
70234;DHT22;75981;42.636;23.376;2024-03-23T07:01:36;9.58;49.22
70234;DHT22;75981;42.636;23.376;2024-03-23T07:04:02;9.60;48.63
70234;DHT22;75981;42.636;23.376;2024-03-23T07:06:29;10.64;47.23
70234;DHT22;75981;42.636;23.376;2024-03-23T07:08:55;11.31;57.20
70234;DHT22;75981;42.636;23.376;2024-03-23T07:11:23;11.82;52.33
70234;DHT22;75981;42.636;23.376;2024-03-23T07:13:52;12.34;53.94
70234;DHT22;75981;42.636;23.376;2024-03-23T07:16:22;13.19;54.39
70234;DHT22;75981;42.636;23.376;2024-03-23T07:18:47;12.37;46.03
70234;DHT22;75981;42.636;23.376;2024-03-23T07:21:12;12.89;49.44
70234;DHT22;75981;42.636;23.376;2024-03-23T07:23:39;12.99;47.04
70234;DHT22;75981;42.636;23.376;2024-03-23T07:26:07;13.95;49.84
70234;DHT22;75981;42.636;23.376;2024-03-23T07:28:33;14.21;52.42
70234;DHT22;75981;42.636;23.376;2024-03-23T07:31:12;14.51;49.19
70234;DHT22;75981;42.636;23.376;2024-03-23T07:33:42;14.73;48.19
70234;DHT22;75981;42.636;23.376;2024-03-23T07:36:08;14.90;46.70
70234;DHT22;75981;42.636;23.376;2024-03-23T07:38:33;15.48;47.32
70234;DHT22;75981;42.636;23.376;2024-03-23T07:41:06;14.69;40.42
70234;DHT22;75981;42.636;23.376;2024-03-23T07:43:32;14.04;40.16
70234;DHT22;75981;42.636;23.376;2024-03-23T07:45:58;13.00;41.95
70234;DHT22;75981;42.636;23.376;2024-03-23T07:48:24;13.23;42.26
70234;DHT22;75981;42.636;23.376;2024-03-23T07:53:24;13.33;41.69
70234;DHT22;75981;42.636;23.376;2024-03-23T07:56:09;13.67;41.06
70234;DHT22;75981;42.636;23.376;2024-03-23T07:58:38;13.34;41.47
70234;DHT22;75981;42.636;23.376;2024-03-23T08:01:05;13.58;41.57
70234;DHT22;75981;42.636;23.376;2024-03-23T08:03:33;13.85;40.20
70234;DHT22;75981;42.636;23.376;2024-03-23T08:06:06;14.08;40.13
70234;DHT22;75981;42.636;23.376;2024-03-23T08:08:32;13.91;40.18
70234;DHT22;75981;42.636;23.376;2024-03-23T08:10:58;14.43;39.48
70234;DHT22;75981;42.636;23.376;2024-03-23T08:13:23;14.74;39.05
70234;DHT22;75981;42.636;23.376;2024-03-23T08:15:48;15.00;38.37
70234;DHT22;75981;42.636;23.376;2024-03-23T08:18:14;15.18;38.02
70234;DHT22;75981;42.636;23.376;2024-03-23T08:20:41;15.28;37.12
70234;DHT22;75981;42.636;23.376;2024-03-23T08:23:06;15.38;37.14
70234;DHT22;75981;42.636;23.376;2024-03-23T08:25:32;15.60;37.05
70234;DHT22;75981;42.636;23.376;2024-03-23T08:27:58;15.69;36.72
70234;DHT22;75981;42.636;23.376;2024-03-23T08:30:24;15.76;37.35
70234;DHT22;75981;42.636;23.376;2024-03-23T08:32:50;14.69;38.43
70234;DHT22;75981;42.636;23.376;2024-03-23T08:35:15;14.12;40.17
70234;DHT22;75981;42.636;23.376;2024-03-23T08:37:41;14.16;39.96
70234;DHT22;75981;42.636;23.376;2024-03-23T08:40:06;15.29;38.41
70234;DHT22;75981;42.636;23.376;2024-03-23T08:42:33;15.53;38.00
70234;DHT22;75981;42.636;23.376;2024-03-23T08:44:59;15.85;37.14
70234;DHT22;75981;42.636;23.376;2024-03-23T08:47:24;16.17;36.90
70234;DHT22;75981;42.636;23.376;2024-03-23T08:49:50;16.34;36.63
70234;DHT22;75981;42.636;23.376;2024-03-23T08:52:16;14.74;38.22
70234;DHT22;75981;42.636;23.376;2024-03-23T08:54:41;15.69;37.53
70234;DHT22;75981;42.636;23.376;2024-03-23T08:57:07;16.22;36.46
70234;DHT22;75981;42.636;23.376;2024-03-23T08:59:33;15.90;37.25
70234;DHT22;75981;42.636;23.376;2024-03-23T09:01:58;15.69;37.46
70234;DHT22;75981;42.636;23.376;2024-03-23T09:04:24;15.60;38.11
70234;DHT22;75981;42.636;23.376;2024-03-23T09:06:50;15.29;38.25
70234;DHT22;75981;42.636;23.376;2024-03-23T09:09:15;15.82;37.50
70234;DHT22;75981;42.636;23.376;2024-03-23T09:11:40;16.44;36.42
70234;DHT22;75981;42.636;23.376;2024-03-23T09:14:06;16.54;36.59
70234;DHT22;75981;42.636;23.376;2024-03-23T09:16:31;17.31;42.28
70234;DHT22;75981;42.636;23.376;2024-03-23T09:18:57;17.79;42.30
70234;DHT22;75981;42.636;23.376;2024-03-23T09:21:22;17.38;37.25
70234;DHT22;75981;42.636;23.376;2024-03-23T09:23:47;16.37;35.47
70234;DHT22;75981;42.636;23.376;2024-03-23T09:26:14;16.18;36.27
70234;DHT22;75981;42.636;23.376;2024-03-23T09:28:40;17.09;34.94
70234;DHT22;75981;42.636;23.376;2024-03-23T09:31:06;17.26;34.69
70234;DHT22;75981;42.636;23.376;2024-03-23T09:33:32;17.74;34.77
70234;DHT22;75981;42.636;23.376;2024-03-23T09:35:58;17.96;33.90
70234;DHT22;75981;42.636;23.376;2024-03-23T09:38:23;17.40;33.69
70234;DHT22;75981;42.636;23.376;2024-03-23T09:40:53;17.55;34.46
70234;DHT22;75981;42.636;23.376;2024-03-23T09:43:19;17.53;34.35
70234;DHT22;75981;42.636;23.376;2024-03-23T09:45:45;17.10;34.79
70234;DHT22;75981;42.636;23.376;2024-03-23T09:48:11;17.43;35.58
70234;DHT22;75981;42.636;23.376;2024-03-23T09:50:41;17.57;34.81
70234;DHT22;75981;42.636;23.376;2024-03-23T09:53:08;18.12;34.22
70234;DHT22;75981;42.636;23.376;2024-03-23T09:55:34;17.28;33.78
70234;DHT22;75981;42.636;23.376;2024-03-23T09:58:03;17.28;34.55
70234;DHT22;75981;42.636;23.376;2024-03-23T10:00:30;17.96;33.57
70234;DHT22;75981;42.636;23.376;2024-03-23T10:02:56;17.79;33.53
70234;DHT22;75981;42.636;23.376;2024-03-23T10:05:23;18.43;33.26
70234;DHT22;75981;42.636;23.376;2024-03-23T10:07:50;18.39;33.28
70234;DHT22;75981;42.636;23.376;2024-03-23T10:10:16;18.68;31.91
70234;DHT22;75981;42.636;23.376;2024-03-23T10:12:49;18.36;32.79
70234;DHT22;75981;42.636;23.376;2024-03-23T10:15:27;17.84;34.04
70234;DHT22;75981;42.636;23.376;2024-03-23T10:17:52;18.06;32.34
70234;DHT22;75981;42.636;23.376;2024-03-23T10:20:20;18.54;33.20
70234;DHT22;75981;42.636;23.376;2024-03-23T10:22:48;19.04;31.62
70234;DHT22;75981;42.636;23.376;2024-03-23T10:25:14;19.40;31.11
70234;DHT22;75981;42.636;23.376;2024-03-23T10:27:39;18.81;32.09
70234;DHT22;75981;42.636;23.376;2024-03-23T10:30:12;18.73;31.53
70234;DHT22;75981;42.636;23.376;2024-03-23T10:32:40;18.88;30.84
70234;DHT22;75981;42.636;23.376;2024-03-23T10:35:18;18.83;32.00
70234;DHT22;75981;42.636;23.376;2024-03-23T10:37:44;19.90;30.69
70234;DHT22;75981;42.636;23.376;2024-03-23T10:40:12;19.60;30.83
70234;DHT22;75981;42.636;23.376;2024-03-23T10:42:38;19.45;30.44
70234;DHT22;75981;42.636;23.376;2024-03-23T10:45:04;18.81;31.51
70234;DHT22;75981;42.636;23.376;2024-03-23T10:47:31;18.22;32.33
70234;DHT22;75981;42.636;23.376;2024-03-23T10:49:58;18.59;32.21
70234;DHT22;75981;42.636;23.376;2024-03-23T10:52:24;18.88;31.29
70234;DHT22;75981;42.636;23.376;2024-03-23T10:54:51;19.67;30.40
70234;DHT22;75981;42.636;23.376;2024-03-23T10:57:23;19.90;30.69
70234;DHT22;75981;42.636;23.376;2024-03-23T10:59:52;19.58;29.46
70234;DHT22;75981;42.636;23.376;2024-03-23T11:02:21;18.78;30.12
70234;DHT22;75981;42.636;23.376;2024-03-23T11:04:46;19.31;29.89
70234;DHT22;75981;42.636;23.376;2024-03-23T11:09:53;20.17;29.16
70234;DHT22;75981;42.636;23.376;2024-03-23T11:14:48;20.86;27.74
70234;DHT22;75981;42.636;23.376;2024-03-23T11:17:19;20.45;27.93
70234;DHT22;75981;42.636;23.376;2024-03-23T11:19:53;19.56;28.55
70234;DHT22;75981;42.636;23.376;2024-03-23T11:22:38;19.26;28.73
70234;DHT22;75981;42.636;23.376;2024-03-23T11:25:25;19.46;28.64
70234;DHT22;75981;42.636;23.376;2024-03-23T11:27:55;19.83;27.97
70234;DHT22;75981;42.636;23.376;2024-03-23T11:32:49;20.14;28.60
70234;DHT22;75981;42.636;23.376;2024-03-23T11:35:34;19.01;29.34
70234;DHT22;75981;42.636;23.376;2024-03-23T11:38:11;18.80;29.68
70234;DHT22;75981;42.636;23.376;2024-03-23T11:40:46;19.58;29.06
70234;DHT22;75981;42.636;23.376;2024-03-23T11:43:19;19.12;29.58
70234;DHT22;75981;42.636;23.376;2024-03-23T11:45:50;19.25;29.57
70234;DHT22;75981;42.636;23.376;2024-03-23T11:48:21;19.29;28.99
70234;DHT22;75981;42.636;23.376;2024-03-23T11:50:48;19.26;29.37
70234;DHT22;75981;42.636;23.376;2024-03-23T11:53:17;19.42;29.35
70234;DHT22;75981;42.636;23.376;2024-03-23T11:55:49;19.56;29.20
70234;DHT22;75981;42.636;23.376;2024-03-23T11:58:16;19.33;29.53
70234;DHT22;75981;42.636;23.376;2024-03-23T12:00:58;20.28;29.31
70234;DHT22;75981;42.636;23.376;2024-03-23T12:03:25;20.04;29.09
70234;DHT22;75981;42.636;23.376;2024-03-23T12:06:01;20.69;28.60
70234;DHT22;75981;42.636;23.376;2024-03-23T12:08:31;20.65;28.34
70234;DHT22;75981;42.636;23.376;2024-03-23T12:11:10;21.16;28.13
70234;DHT22;75981;42.636;23.376;2024-03-23T12:13:36;20.58;27.88
70234;DHT22;75981;42.636;23.376;2024-03-23T12:16:15;20.58;27.77
70234;DHT22;75981;42.636;23.376;2024-03-23T12:18:42;21.17;28.04
70234;DHT22;75981;42.636;23.376;2024-03-23T12:21:08;21.10;27.94
70234;DHT22;75981;42.636;23.376;2024-03-23T12:23:34;21.43;27.36
70234;DHT22;75981;42.636;23.376;2024-03-23T12:25:59;21.17;27.65
70234;DHT22;75981;42.636;23.376;2024-03-23T12:28:25;21.44;27.37
70234;DHT22;75981;42.636;23.376;2024-03-23T12:30:51;21.22;27.83
70234;DHT22;75981;42.636;23.376;2024-03-23T12:33:18;21.07;28.25
70234;DHT22;75981;42.636;23.376;2024-03-23T12:35:43;20.89;28.34
70234;DHT22;75981;42.636;23.376;2024-03-23T12:38:09;21.10;28.05
70234;DHT22;75981;42.636;23.376;2024-03-23T12:40:34;21.33;27.74
70234;DHT22;75981;42.636;23.376;2024-03-23T12:43:00;21.02;27.05
70234;DHT22;75981;42.636;23.376;2024-03-23T12:45:25;21.36;27.11
70234;DHT22;75981;42.636;23.376;2024-03-23T12:47:51;21.50;26.77
70234;DHT22;75981;42.636;23.376;2024-03-23T12:50:19;21.13;26.52
70234;DHT22;75981;42.636;23.376;2024-03-23T12:52:45;20.78;26.71
70234;DHT22;75981;42.636;23.376;2024-03-23T12:55:10;20.24;27.24
70234;DHT22;75981;42.636;23.376;2024-03-23T12:57:36;20.27;27.65
70234;DHT22;75981;42.636;23.376;2024-03-23T13:00:01;20.17;26.97
70234;DHT22;75981;42.636;23.376;2024-03-23T13:02:28;20.14;27.38
70234;DHT22;75981;42.636;23.376;2024-03-23T13:04:54;19.94;27.21
70234;DHT22;75981;42.636;23.376;2024-03-23T13:07:20;20.08;26.86
70234;DHT22;75981;42.636;23.376;2024-03-23T13:09:47;19.73;27.13
70234;DHT22;75981;42.636;23.376;2024-03-23T13:12:12;19.81;26.38
70234;DHT22;75981;42.636;23.376;2024-03-23T13:14:40;20.07;26.88
70234;DHT22;75981;42.636;23.376;2024-03-23T13:17:06;19.74;26.58
70234;DHT22;75981;42.636;23.376;2024-03-23T13:19:32;20.52;26.93
70234;DHT22;75981;42.636;23.376;2024-03-23T13:21:59;20.71;26.57
70234;DHT22;75981;42.636;23.376;2024-03-23T13:24:25;21.07;25.59
70234;DHT22;75981;42.636;23.376;2024-03-23T13:26:52;21.30;25.07
70234;DHT22;75981;42.636;23.376;2024-03-23T13:29:18;21.20;24.48
70234;DHT22;75981;42.636;23.376;2024-03-23T13:31:44;21.19;24.94
70234;DHT22;75981;42.636;23.376;2024-03-23T13:34:09;21.02;24.44
70234;DHT22;75981;42.636;23.376;2024-03-23T13:36:35;21.03;24.95
70234;DHT22;75981;42.636;23.376;2024-03-23T13:39:02;20.68;25.07
70234;DHT22;75981;42.636;23.376;2024-03-23T13:41:31;20.76;24.18
70234;DHT22;75981;42.636;23.376;2024-03-23T13:43:57;20.66;23.71
70234;DHT22;75981;42.636;23.376;2024-03-23T13:46:22;20.51;23.87
70234;DHT22;75981;42.636;23.376;2024-03-23T13:48:48;20.95;23.65
70234;DHT22;75981;42.636;23.376;2024-03-23T13:51:13;20.89;23.84
70234;DHT22;75981;42.636;23.376;2024-03-23T13:53:38;21.47;23.56
70234;DHT22;75981;42.636;23.376;2024-03-23T13:56:04;21.28;23.55
70234;DHT22;75981;42.636;23.376;2024-03-23T13:58:30;21.36;22.90
70234;DHT22;75981;42.636;23.376;2024-03-23T14:00:57;20.49;22.74
70234;DHT22;75981;42.636;23.376;2024-03-23T14:03:23;20.38;26.46
70234;DHT22;75981;42.636;23.376;2024-03-23T14:05:48;20.69;24.46
70234;DHT22;75981;42.636;23.376;2024-03-23T14:08:14;21.20;23.26
70234;DHT22;75981;42.636;23.376;2024-03-23T14:10:41;20.82;23.56
70234;DHT22;75981;42.636;23.376;2024-03-23T14:13:07;20.95;23.69
70234;DHT22;75981;42.636;23.376;2024-03-23T14:15:33;21.14;23.18
70234;DHT22;75981;42.636;23.376;2024-03-23T14:17:59;21.11;22.81
70234;DHT22;75981;42.636;23.376;2024-03-23T14:20:25;20.71;21.83
70234;DHT22;75981;42.636;23.376;2024-03-23T14:22:51;20.82;21.79
70234;DHT22;75981;42.636;23.376;2024-03-23T14:25:17;21.00;21.90
70234;DHT22;75981;42.636;23.376;2024-03-23T14:27:46;20.86;22.25
70234;DHT22;75981;42.636;23.376;2024-03-23T14:30:12;20.85;22.38
70234;DHT22;75981;42.636;23.376;2024-03-23T14:32:38;20.65;22.94
70234;DHT22;75981;42.636;23.376;2024-03-23T14:35:04;20.03;22.73
70234;DHT22;75981;42.636;23.376;2024-03-23T14:37:30;19.96;22.74
70234;DHT22;75981;42.636;23.376;2024-03-23T14:39:56;20.28;22.39
70234;DHT22;75981;42.636;23.376;2024-03-23T14:42:23;20.22;22.34
70234;DHT22;75981;42.636;23.376;2024-03-23T14:44:51;20.45;22.69
70234;DHT22;75981;42.636;23.376;2024-03-23T14:47:18;20.07;22.97
70234;DHT22;75981;42.636;23.376;2024-03-23T14:49:44;20.47;23.03
70234;DHT22;75981;42.636;23.376;2024-03-23T14:52:13;20.42;22.66
70234;DHT22;75981;42.636;23.376;2024-03-23T14:54:39;20.08;22.39
70234;DHT22;75981;42.636;23.376;2024-03-23T14:57:05;20.10;22.79
70234;DHT22;75981;42.636;23.376;2024-03-23T14:59:32;19.98;22.68
70234;DHT22;75981;42.636;23.376;2024-03-23T15:01:58;20.31;22.91
70234;DHT22;75981;42.636;23.376;2024-03-23T15:04:23;20.07;22.78
70234;DHT22;75981;42.636;23.376;2024-03-23T15:06:49;20.11;23.20
70234;DHT22;75981;42.636;23.376;2024-03-23T15:09:15;20.16;22.84
70234;DHT22;75981;42.636;23.376;2024-03-23T15:11:41;19.35;22.50
70234;DHT22;75981;42.636;23.376;2024-03-23T15:14:06;19.40;22.76
70234;DHT22;75981;42.636;23.376;2024-03-23T15:16:32;19.05;23.08
70234;DHT22;75981;42.636;23.376;2024-03-23T15:18:58;19.18;22.81
70234;DHT22;75981;42.636;23.376;2024-03-23T15:21:24;19.15;22.92
70234;DHT22;75981;42.636;23.376;2024-03-23T15:23:49;19.38;22.86
70234;DHT22;75981;42.636;23.376;2024-03-23T15:26:14;19.50;22.97
70234;DHT22;75981;42.636;23.376;2024-03-23T15:28:41;18.71;23.17
70234;DHT22;75981;42.636;23.376;2024-03-23T15:31:08;18.67;23.40
70234;DHT22;75981;42.636;23.376;2024-03-23T15:33:37;18.97;23.37
70234;DHT22;75981;42.636;23.376;2024-03-23T15:36:05;19.28;23.56
70234;DHT22;75981;42.636;23.376;2024-03-23T15:38:33;19.25;23.48
70234;DHT22;75981;42.636;23.376;2024-03-23T15:40:59;18.83;24.15
70234;DHT22;75981;42.636;23.376;2024-03-23T15:43:24;18.91;24.44
70234;DHT22;75981;42.636;23.376;2024-03-23T15:45:58;19.23;24.70
70234;DHT22;75981;42.636;23.376;2024-03-23T15:48:25;19.36;24.54
70234;DHT22;75981;42.636;23.376;2024-03-23T15:50:57;19.04;24.70
70234;DHT22;75981;42.636;23.376;2024-03-23T15:53:24;18.92;24.96
70234;DHT22;75981;42.636;23.376;2024-03-23T15:56:02;18.53;25.35
70234;DHT22;75981;42.636;23.376;2024-03-23T15:58:29;18.70;25.40
70234;DHT22;75981;42.636;23.376;2024-03-23T16:01:05;18.61;25.52
70234;DHT22;75981;42.636;23.376;2024-03-23T16:03:32;18.65;25.70
70234;DHT22;75981;42.636;23.376;2024-03-23T16:06:02;18.54;26.19
70234;DHT22;75981;42.636;23.376;2024-03-23T16:08:28;18.43;26.60
70234;DHT22;75981;42.636;23.376;2024-03-23T16:10:54;18.23;26.92
70234;DHT22;75981;42.636;23.376;2024-03-23T16:13:20;18.40;27.12
70234;DHT22;75981;42.636;23.376;2024-03-23T16:15:53;18.29;27.40
70234;DHT22;75981;42.636;23.376;2024-03-23T16:18:19;17.89;27.91
70234;DHT22;75981;42.636;23.376;2024-03-23T16:21:01;17.85;28.36
70234;DHT22;75981;42.636;23.376;2024-03-23T16:23:27;17.53;28.86
70234;DHT22;75981;42.636;23.376;2024-03-23T16:25:54;17.33;29.35